Time;durP1;ratioP1;P1;durP2;ratioP2;P2;SDS_P1;SDS_P2;PMS_P1;PMS_P2;Temp;Humidity;BMP_temperature;BMP_pressure;BME280_temperature;BME280_humidity;BME280_pressure;Samples;Min_cycle;Max_cycle;Signal;HPM_P1;HPM_P2
2022/10/05 00:01:43;;;;;;;11.65;8.00;;;;;;;18.57;55.13;101710.78;4959471;28;124020;-72
2022/10/05 00:04:23;;;;;;;12.85;7.90;;;;;;;18.58;55.29;101712.53;4971463;28;115029;-72
2022/10/05 00:07:07;;;;;;;10.77;7.68;;;;;;;18.58;55.09;101701.78;4970011;28;113777;-72
2022/10/05 00:09:34;;;;;;;12.63;8.32;;;;;;;18.57;55.17;101694.69;4957495;28;123827;-73
2022/10/05 00:12:13;;;;;;;12.13;8.77;;;;;;;18.58;55.22;101707.16;4951156;28;122522;-72
2022/10/05 00:14:41;;;;;;;10.07;8.20;;;;;;;18.60;55.17;101703.41;4968406;28;115441;-72
2022/10/05 00:17:29;;;;;;;10.57;7.97;;;;;;;18.58;55.26;101701.78;4971777;28;114543;-72
2022/10/05 00:19:56;;;;;;;12.98;8.10;;;;;;;18.59;55.14;101698.13;4954078;28;123548;-73
2022/10/05 00:22:29;;;;;;;11.55;7.90;;;;;;;18.58;55.13;101699.09;4965609;28;123269;-72
2022/10/05 00:24:59;;;;;;;11.45;7.97;;;;;;;18.59;55.24;101698.13;4965807;28;113882;-72
2022/10/05 00:27:37;;;;;;;10.20;8.35;;;;;;;18.58;55.35;101691.91;4947853;28;113100;-73
2022/10/05 00:30:16;;;;;;;12.52;8.32;;;;;;;18.59;55.34;101682.03;4969539;28;123642;-72
2022/10/05 00:32:44;;;;;;;10.00;7.80;;;;;;;18.60;55.29;101678.41;4953537;28;122854;-72
2022/10/05 00:35:13;;;;;;;11.93;8.10;;;;;;;18.58;55.29;101680.34;4970638;28;114281;-73
2022/10/05 00:37:40;;;;;;;10.07;7.82;;;;;;;18.57;55.31;101678.59;4953098;28;113165;-72
2022/10/05 00:40:36;;;;;;;12.00;8.57;;;;;;;18.54;55.35;101678.81;4970844;28;125440;-72
2022/10/05 00:43:33;;;;;;;12.13;8.27;;;;;;;18.54;55.36;101678.81;4953992;28;123567;-72
2022/10/05 00:46:22;;;;;;;11.07;7.88;;;;;;;18.52;55.51;101675.38;4964697;28;114403;-73
2022/10/05 00:49:09;;;;;;;9.75;7.88;;;;;;;18.52;55.35;101680.75;4950944;28;113013;-72
2022/10/05 00:51:37;;;;;;;12.18;8.45;;;;;;;18.52;55.48;101675.38;4965682;28;123914;-72
2022/10/05 00:54:24;;;;;;;16.92;9.05;;;;;;;18.51;55.42;101679.00;4970353;28;123962;-72
2022/10/05 00:57:08;;;;;;;10.07;7.82;;;;;;;18.49;55.54;101688.00;4968863;28;114620;-73
2022/10/05 01:00:02;;;;;;;11.82;8.23;;;;;;;18.51;55.78;101684.38;4945651;28;113016;-73
2022/10/05 01:02:49;;;;;;;12.05;8.32;;;;;;;18.48;55.58;101682.75;4954491;28;124139;-72
2022/10/05 01:05:46;;;;;;;13.38;8.95;;;;;;;18.47;55.55;101679.19;4952768;28;122758;-72
2022/10/05 01:08:27;;;;;;;10.38;8.23;;;;;;;18.48;55.57;101680.06;4932342;28;114862;-72
2022/10/05 01:11:12;;;;;;;11.90;8.27;;;;;;;18.45;55.67;101678.44;4971531;28;114818;-72
2022/10/05 01:13:45;;;;;;;;;;;;;;;18.43;55.53;101677.69;4953567;28;123141;-72
2022/10/05 01:16:28;;;;;;;9.70;8.18;;;;;;;18.45;55.50;101670.38;4942137;28;122938;-72
2022/10/05 01:19:08;;;;;;;14.38;8.75;;;;;;;18.44;55.91;101663.31;4958831;28;113819;-73
2022/10/05 01:22:06;;;;;;;12.38;8.32;;;;;;;18.42;55.67;101665.25;4959883;28;113844;-72
2022/10/05 01:24:55;;;;;;;11.18;8.20;;;;;;;18.41;55.79;101652.78;4957468;28;124435;-72
2022/10/05 01:27:39;;;;;;;9.98;8.25;;;;;;;18.41;55.72;101647.41;4952555;28;123982;-73
2022/10/05 01:30:13;;;;;;;13.48;8.15;;;;;;;18.41;55.95;101651.94;4968039;28;114595;-72
2022/10/05 01:32:52;;;;;;;13.25;8.60;;;;;;;18.39;55.90;101649.34;4954198;28;113867;-72
2022/10/05 01:35:35;;;;;;;10.88;8.40;;;;;;;18.40;56.04;101640.34;4967465;28;124094;-72
2022/10/05 01:38:34;;;;;;;10.90;8.60;;;;;;;18.40;55.73;101642.13;4946263;28;123787;-72
2022/10/05 01:41:32;;;;;;;13.27;7.93;;;;;;;18.39;55.97;101641.28;4951251;28;113573;-72
2022/10/05 01:44:10;;;;;;;13.13;8.80;;;;;;;18.39;56.07;101643.97;4967944;28;113363;-72
2022/10/05 01:47:03;;;;;;;12.60;8.43;;;;;;;18.36;56.04;101633.44;4934051;28;124121;-72
2022/10/05 01:50:01;;;;;;;11.45;8.00;;;;;;;18.34;56.08;101635.34;4916326;28;122785;-72
2022/10/05 01:52:50;;;;;;;12.80;9.23;;;;;;;18.33;56.19;101633.66;4901280;28;113481;-72
2022/10/05 01:55:39;;;;;;;12.55;8.60;;;;;;;18.31;56.21;101630.22;4950693;28;113887;-72
2022/10/05 01:58:08;;;;;;;12.65;8.35;;;;;;;18.30;56.28;101633.84;4966103;28;123534;-72
2022/10/05 02:00:44;;;;;;;12.32;7.95;;;;;;;18.31;56.37;101629.31;4970565;28;123856;-72
2022/10/05 02:03:18;;;;;;;12.18;8.90;;;;;;;18.31;56.35;101627.53;4937502;28;114476;-72
2022/10/05 02:06:00;;;;;;;11.98;8.20;;;;;;;18.29;56.37;101621.41;4950798;28;114851;-72
2022/10/05 02:08:53;;;;;;;12.23;8.40;;;;;;;18.29;56.55;101618.72;4947424;28;123231;-72
2022/10/05 02:11:20;;;;;;;11.50;8.45;;;;;;;18.29;56.45;101621.41;4961314;28;124674;-72
2022/10/05 02:13:54;;;;;;;12.90;8.52;;;;;;;18.28;56.45;101612.47;4939814;28;114534;-72
2022/10/05 02:16:28;;;;;;;14.07;8.77;;;;;;;18.25;56.51;101604.66;4952740;28;113295;-72
2022/10/05 02:19:01;;;;;;;11.07;7.95;;;;;;;18.26;56.49;101601.00;4955960;28;122777;-72
2022/10/05 02:21:32;;;;;;;11.73;8.35;;;;;;;18.26;56.65;101600.16;4967680;28;123783;-72
2022/10/05 02:24:07;;;;;;;12.70;8.48;;;;;;;18.28;56.60;101598.22;4949488;28;115609;-72
2022/10/05 02:26:37;;;;;;;12.23;9.00;;;;;;;18.28;56.58;101598.22;4967112;28;114117;-72
2022/10/05 02:29:09;;;;;;;14.15;9.02;;;;;;;18.26;56.64;101594.78;4920899;28;123613;-72
2022/10/05 02:31:46;;;;;;;13.88;8.88;;;;;;;18.26;56.67;101594.78;4935766;28;123151;-72
2022/10/05 02:34:45;;;;;;;11.85;8.80;;;;;;;18.25;56.50;101587.69;4958134;28;114758;-73
2022/10/05 02:37:22;;;;;;;10.65;7.55;;;;;;;18.26;56.67;101589.41;4923716;28;113834;-72
2022/10/05 02:40:20;;;;;;;11.80;8.18;;;;;;;18.24;56.66;101591.34;4951468;28;122762;-72
2022/10/05 02:42:55;;;;;;;10.75;8.20;;;;;;;18.24;56.54;101580.63;4951334;28;123449;-72
2022/10/05 02:45:35;;;;;;;;;;;;;;;18.21;56.36;101570.09;4938658;28;113250;-72
2022/10/05 02:48:14;;;;;;;10.35;8.02;;;;;;;18.23;56.46;101578.88;4952227;28;113190;-72
2022/10/05 02:51:02;;;;;;;12.20;8.60;;;;;;;18.20;56.76;101571.06;4966487;28;124135;-72
2022/10/05 02:54:00;;;;;;;10.30;7.97;;;;;;;18.20;56.72;101573.75;4948993;28;123804;-72
2022/10/05 02:56:51;;;;;;;11.98;8.32;;;;;;;18.19;56.68;101566.66;4936099;28;115613;-72
2022/10/05 02:59:30;;;;;;;11.95;8.63;;;;;;;18.19;56.92;101572.00;4951074;28;114166;-72
2022/10/05 03:02:09;;;;;;;11.60;8.48;;;;;;;18.19;56.78;101563.97;4952142;28;122925;-72
2022/10/05 03:04:36;;;;;;;11.25;8.55;;;;;;;18.18;56.96;101559.56;4967136;28;124043;-72
2022/10/05 03:07:16;;;;;;;10.93;8.35;;;;;;;18.16;56.82;101556.09;4951476;28;113691;-72
2022/10/05 03:10:08;;;;;;;12.43;8.65;;;;;;;18.15;56.74;101549.03;4937692;28;113665;-72
2022/10/05 03:12:51;;;;;;;12.60;8.68;;;;;;;18.14;56.75;101536.59;4966925;28;123985;-72
2022/10/05 03:15:29;;;;;;;12.05;8.85;;;;;;;18.12;56.94;101538.50;4941324;28;124031;-72
2022/10/05 03:18:28;;;;;;;13.43;8.50;;;;;;;18.12;56.82;101533.16;4948614;28;113209;-72
2022/10/05 03:21:20;;;;;;;12.85;8.13;;;;;;;18.09;56.83;101535.06;4945798;28;113575;-72
2022/10/05 03:24:06;;;;;;;13.32;8.65;;;;;;;18.07;56.92;101531.63;4944090;28;123480;-72
2022/10/05 03:26:55;;;;;;;12.10;8.50;;;;;;;18.06;56.89;101539.78;4957351;28;123664;-72
2022/10/05 03:29:48;;;;;;;11.73;8.27;;;;;;;18.01;56.92;101537.41;4951251;28;113786;-72
2022/10/05 03:32:40;;;;;;;14.23;8.93;;;;;;;18.00;57.06;101541.03;4951134;28;113419;-72
2022/10/05 03:35:21;;;;;;;14.43;8.88;;;;;;;17.99;57.03;101550.06;4957810;28;124019;-72
2022/10/05 03:38:03;;;;;;;11.85;8.57;;;;;;;17.97;57.07;101546.63;4947353;28;123738;-72
2022/10/05 03:41:02;;;;;;;11.13;8.73;;;;;;;17.97;56.99;101551.97;4945121;28;113860;-72
2022/10/05 03:43:45;;;;;;;10.15;8.40;;;;;;;17.97;57.27;101541.25;4927493;28;113757;-72
2022/10/05 03:46:42;;;;;;;14.20;8.50;;;;;;;17.95;57.16;101548.53;4964021;28;123227;-72
2022/10/05 03:49:19;;;;;;;11.52;8.52;;;;;;;17.96;57.35;101547.56;4904526;28;123013;-72
2022/10/05 03:52:20;;;;;;;11.70;8.48;;;;;;;17.95;57.17;101548.53;4948073;28;114773;-72
2022/10/05 03:54:55;;;;;;;10.95;8.57;;;;;;;17.96;57.46;101547.56;4960238;28;112821;-73
2022/10/05 03:57:26;;;;;;;13.30;8.80;;;;;;;17.96;57.41;101544.88;4947165;28;123773;-72
2022/10/05 04:00:21;;;;;;;13.10;9.00;;;;;;;17.95;57.40;101543.19;4963180;28;124650;-73
2022/10/05 04:03:14;;;;;;;12.55;8.60;;;;;;;17.95;57.30;101543.19;4950490;28;113855;-72
2022/10/05 04:05:49;;;;;;;12.82;9.25;;;;;;;17.95;57.44;101537.81;4950662;28;113063;-72
2022/10/05 04:08:22;;;;;;;11.70;8.50;;;;;;;17.95;57.55;101528.88;4949817;28;123389;-72
2022/10/05 04:10:53;;;;;;;11.93;9.05;;;;;;;17.95;57.44;101537.81;4950334;28;122452;-72
2022/10/05 04:13:56;;;;;;;11.75;8.50;;;;;;;17.94;57.48;101541.44;4946296;28;112894;-72
2022/10/05 04:16:28;;;;;;;13.88;8.98;;;;;;;17.95;57.46;101536.94;4938015;28;113825;-72
2022/10/05 04:19:17;;;;;;;13.95;8.63;;;;;;;17.93;57.46;101542.38;4949686;28;123352;-72
2022/10/05 04:21:58;;;;;;;11.38;8.13;;;;;;;17.95;57.61;101537.81;4965437;28;123469;-72
2022/10/05 04:24:44;;;;;;;12.88;9.50;;;;;;;17.93;57.49;101542.38;4950483;28;113480;-72
2022/10/05 04:27:16;;;;;;;14.18;9.13;;;;;;;17.94;57.56;101533.41;4950093;28;114749;-72
2022/10/05 04:29:54;;;;;;;14.75;8.75;;;;;;;17.93;57.56;101534.34;4951976;28;123277;-72
2022/10/05 04:32:30;;;;;;;13.32;9.60;;;;;;;17.92;57.56;101532.66;4953581;28;123090;-73
2022/10/05 04:35:10;;;;;;;11.25;8.80;;;;;;;17.92;57.45;101538.00;4970491;28;113683;-73
2022/10/05 04:38:06;;;;;;;11.82;8.70;;;;;;;17.91;57.57;101536.28;4934920;28;114593;-72
2022/10/05 04:40:42;;;;;;;12.82;9.52;;;;;;;17.90;57.56;101531.88;4951400;28;123968;-72
2022/10/05 04:43:34;;;;;;;12.05;8.88;;;;;;;17.87;57.76;101530.25;4954234;28;124102;-73
2022/10/05 04:46:17;;;;;;;11.98;8.90;;;;;;;17.85;57.56;101520.59;4953459;28;114369;-72
2022/10/05 04:49:12;;;;;;;12.15;8.90;;;;;;;17.83;57.70;101528.69;4953383;28;114469;-72
2022/10/05 04:51:57;;;;;;;12.48;8.77;;;;;;;17.79;57.87;101527.19;4953682;28;123761;-72
2022/10/05 04:54:48;;;;;;;13.68;8.93;;;;;;;17.79;58.01;101526.31;4949452;28;122290;-72
2022/10/05 04:57:23;;;;;;;11.40;8.98;;;;;;;17.80;57.96;101528.03;4947336;28;113595;-72
2022/10/05 05:00:15;;;;;;;13.07;9.98;;;;;;;17.79;57.98;101526.31;4954394;28;113506;-72
2022/10/05 05:03:01;;;;;;;10.90;9.13;;;;;;;17.78;58.10;101519.22;4950072;28;123502;-72
2022/10/05 05:05:39;;;;;;;13.68;9.15;;;;;;;17.76;58.09;101519.31;4971362;28;125434;-72
2022/10/05 05:08:43;;;;;;;;;;;;;;;17.71;57.67;101514.28;4944502;28;114527;-72
2022/10/05 05:11:27;;;;;;;12.40;8.70;;;;;;;17.73;57.97;101521.38;4971105;28;112275;-72
2022/10/05 05:14:16;;;;;;;16.05;8.57;;;;;;;17.72;58.10;101515.13;4952280;28;123578;-72
2022/10/05 05:16:56;;;;;;;12.98;8.93;;;;;;;17.71;57.92;101514.28;4953046;28;122846;-72
2022/10/05 05:19:31;;;;;;;14.23;8.93;;;;;;;17.71;58.38;101514.28;4944687;28;113339;-72
2022/10/05 05:22:17;;;;;;;10.15;8.35;;;;;;;17.75;58.20;101519.44;4953857;28;112480;-72
2022/10/05 05:25:18;;;;;;;11.82;8.38;;;;;;;17.75;58.35;101517.63;4918579;28;123694;-72
2022/10/05 05:28:16;;;;;;;9.38;7.65;;;;;;;17.76;58.14;101507.75;4949758;28;124786;-72
2022/10/05 05:31:09;;;;;;;12.98;8.05;;;;;;;17.77;58.16;101512.16;4939448;28;113616;-72
2022/10/05 05:33:53;;;;;;;8.88;7.32;;;;;;;17.77;58.06;101513.03;4950947;28;113161;-73
2022/10/05 05:36:50;;;;;;;10.05;7.72;;;;;;;17.77;58.20;101506.81;4943371;28;123042;-72
2022/10/05 05:39:24;;;;;;;11.85;8.05;;;;;;;17.79;58.07;101512.94;4933039;28;123197;-72
2022/10/05 05:42:16;;;;;;;11.65;7.78;;;;;;;17.80;58.21;101511.94;4933295;28;114829;-72
2022/10/05 05:44:53;;;;;;;10.38;7.43;;;;;;;17.80;58.08;101501.22;4941661;28;114039;-72
2022/10/05 05:47:36;;;;;;;11.63;7.80;;;;;;;17.81;57.95;101508.31;4952071;28;123933;-72
2022/10/05 05:50:22;;;;;;;11.57;7.75;;;;;;;17.78;58.18;101497.78;4951603;28;123173;-72
2022/10/05 05:52:59;;;;;;;12.27;7.30;;;;;;;17.79;58.07;101504.91;4935979;28;114003;-72
2022/10/05 05:55:49;;;;;;;11.68;7.75;;;;;;;17.78;57.97;101508.50;4950520;28;113353;-72
2022/10/05 05:58:16;;;;;;;11.45;7.60;;;;;;;17.78;58.13;101503.16;4959269;28;123217;-72
2022/10/05 06:00:49;;;;;;;10.32;7.40;;;;;;;17.79;58.22;101504.91;4952316;28;121910;-71
2022/10/05 06:03:44;;;;;;;10.98;6.97;;;;;;;17.77;58.13;101499.63;4950445;28;113396;-72
2022/10/05 06:06:16;;;;;;;10.05;7.40;;;;;;;17.77;58.23;101502.31;4930633;28;113449;-72
2022/10/05 06:09:02;;;;;;;10.18;6.85;;;;;;;17.77;58.12;101496.09;4934772;28;123687;-72
2022/10/05 06:11:47;;;;;;;10.63;7.22;;;;;;;17.79;58.11;101499.53;4955537;28;121436;-72
2022/10/05 06:14:22;;;;;;;8.40;6.68;;;;;;;17.80;58.36;101495.88;4943525;28;113837;-72
2022/10/05 06:16:59;;;;;;;9.82;6.93;;;;;;;17.82;58.25;101499.31;4952354;28;113032;-72
2022/10/05 06:19:28;;;;;;;11.48;6.70;;;;;;;17.83;57.91;101501.03;4969350;28;123573;-72
2022/10/05 06:22:22;;;;;;;10.35;6.60;;;;;;;17.83;58.18;101507.25;4952767;28;123685;-72
2022/10/05 06:25:11;;;;;;;12.25;6.50;;;;;;;17.85;58.26;101499.16;4953127;28;112159;-72
2022/10/05 06:28:10;;;;;;;9.55;6.63;;;;;;;17.86;58.07;101508.94;4951932;28;112309;-72
2022/10/05 06:31:13;;;;;;;7.65;6.00;;;;;;;17.86;58.06;101506.25;4953148;28;123147;-72
2022/10/05 06:33:51;;;;;;;8.80;6.05;;;;;;;17.88;58.10;101504.31;4953460;28;123637;-72
2022/10/05 06:36:48;;;;;;;9.10;6.05;;;;;;;17.90;57.83;101502.41;4955152;28;114364;-72
2022/10/05 06:39:23;;;;;;;8.98;6.18;;;;;;;17.91;57.91;101504.09;4954772;28;114566;-72
2022/10/05 06:41:53;;;;;;;9.55;6.03;;;;;;;17.93;58.01;101496.81;4955292;28;122656;-72
2022/10/05 06:44:52;;;;;;;7.78;5.90;;;;;;;17.95;57.84;101507.44;4952763;28;124724;-72
2022/10/05 06:47:50;;;;;;;7.47;5.30;;;;;;;17.96;58.28;101502.00;4939780;28;113480;-72
2022/10/05 06:50:49;;;;;;;9.88;6.38;;;;;;;17.99;57.89;101507.16;4933243;28;114408;-72
2022/10/05 06:53:49;;;;;;;9.35;5.03;;;;;;;18.01;57.87;101494.53;4934391;28;124636;-72
2022/10/05 06:56:28;;;;;;;8.07;5.70;;;;;;;18.05;57.89;101500.53;4951529;28;124645;-72
2022/10/05 06:59:10;;;;;;;8.65;5.28;;;;;;;18.06;57.76;101499.56;4956583;28;113620;-72
2022/10/05 07:01:55;;;;;;;7.88;5.53;;;;;;;18.08;57.75;101501.19;4932496;28;114196;-73
2022/10/05 07:04:53;;;;;;;7.57;5.50;;;;;;;18.09;57.73;101494.84;4947154;28;123365;-72
2022/10/05 07:07:51;;;;;;;7.15;4.95;;;;;;;18.13;57.69;101508.06;4951634;28;123241;-72
2022/10/05 07:10:31;;;;;;;7.45;5.22;;;;;;;18.14;57.60;101499.94;4943055;28;113580;-72
2022/10/05 07:13:32;;;;;;;8.57;4.93;;;;;;;18.16;57.70;101502.47;4945184;28;113332;-72
2022/10/05 07:16:41;;;;;;;6.95;4.97;;;;;;;18.17;57.75;101505.06;4944911;28;123802;-72
2022/10/05 07:19:21;;;;;;;7.53;5.20;;;;;;;18.20;57.64;101498.66;4916072;28;122849;-72
2022/10/05 07:22:39;;;;;;;9.07;5.25;;;;;;;18.24;57.63;101505.53;4953173;28;113635;-72
2022/10/05 07:25:49;;;;;;;10.13;5.15;;;;;;;18.26;57.58;101503.59;4928838;28;114442;-73
2022/10/05 07:29:09;;;;;;;7.47;5.15;;;;;;;18.30;57.57;101505.13;4963978;28;123154;-72
2022/10/05 07:31:46;;;;;;;6.18;4.80;;;;;;;18.34;57.42;101516.50;4914224;28;123308;-72
2022/10/05 07:34:28;;;;;;;8.40;5.13;;;;;;;18.36;57.52;101512.75;4960477;28;115974;-72
2022/10/05 07:40:40;;;;;;;6.22;4.78;;;;;;;18.42;57.42;101504.31;4940364;28;123779;-72
2022/10/05 07:43:27;;;;;;;6.53;4.90;;;;;;;18.47;57.45;101512.03;4937742;28;122369;-73
2022/10/05 07:46:43;;;;;;;7.68;5.18;;;;;;;18.52;57.47;101514.41;4960640;28;113762;-73
2022/10/05 07:49:25;;;;;;;9.27;4.93;;;;;;;18.55;57.46;101508.81;4957784;28;113255;-72
2022/10/05 07:51:57;;;;;;;7.22;4.85;;;;;;;18.59;57.29;101510.31;4945251;28;123827;-73
2022/10/05 07:54:36;;;;;;;5.25;4.50;;;;;;;18.64;57.34;101508.19;4948805;28;121751;-72
2022/10/05 07:57:25;;;;;;;6.57;4.65;;;;;;;18.71;57.33;101512.19;4940548;28;113473;-72
2022/10/05 08:00:00;;;;;;;6.65;4.40;;;;;;;18.76;57.14;101515.41;4956155;28;114199;-73
2022/10/05 08:02:41;;;;;;;6.15;4.57;;;;;;;18.80;56.92;101519.63;4949760;28;125113;-72
2022/10/05 08:05:32;;;;;;;6.53;4.50;;;;;;;18.86;56.88;101521.88;4971036;28;124809;-72
2022/10/05 08:08:19;;;;;;;9.07;4.55;;;;;;;18.90;56.81;101508.25;4971729;28;114865;-73
2022/10/05 08:11:18;;;;;;;6.13;4.20;;;;;;;18.95;56.47;101511.47;4970165;28;113931;-72
2022/10/05 08:14:01;;;;;;;7.90;4.70;;;;;;;18.98;56.80;101517.47;4964948;28;123734;-72
2022/10/05 08:16:35;;;;;;;5.13;4.35;;;;;;;19.01;56.64;101508.38;4951683;28;124793;-72
2022/10/05 08:19:39;;;;;;;7.10;4.13;;;;;;;19.06;56.75;101503.53;4964125;28;114220;-73
2022/10/05 08:22:11;;;;;;;7.95;4.20;;;;;;;19.12;56.61;101500.44;4954784;28;112873;-72
2022/10/05 08:24:41;;;;;;;5.32;3.90;;;;;;;19.18;56.66;101491.91;4951563;28;125141;-72
2022/10/05 08:27:19;;;;;;;5.82;4.15;;;;;;;19.22;56.38;101493.41;4954406;28;123989;-72
2022/10/05 08:29:54;;;;;;;6.22;4.20;;;;;;;19.30;56.51;101489.34;4949205;28;115328;-72
2022/10/05 08:32:25;;;;;;;6.95;4.57;;;;;;;19.35;56.35;101487.19;4968993;28;114842;-73
2022/10/05 08:35:20;;;;;;;7.15;4.50;;;;;;;19.41;56.46;101481.34;4971271;28;124936;-72
2022/10/05 08:37:48;;;;;;;5.35;4.03;;;;;;;19.48;56.31;101498.75;4969531;28;123590;-71
2022/10/05 08:40:17;;;;;;;5.95;3.78;;;;;;;19.53;56.21;101480.44;4972021;28;114417;-72
2022/10/05 08:42:56;;;;;;;4.97;3.30;;;;;;;19.58;56.05;101483.66;4938040;28;113213;-72
2022/10/05 08:45:32;;;;;;;5.80;4.07;;;;;;;19.62;56.02;101469.03;4968440;28;123646;-73
2022/10/05 08:48:36;;;;;;;5.47;3.80;;;;;;;19.69;55.89;101471.28;4957345;28;124529;-72
2022/10/05 08:51:35;;;;;;;5.18;3.80;;;;;;;19.73;55.95;101470.13;4971158;28;114266;-72
2022/10/05 08:54:21;;;;;;;5.93;3.78;;;;;;;19.79;55.56;101469.66;4969317;28;114144;-73
2022/10/05 08:57:07;;;;;;;5.65;3.50;;;;;;;19.83;55.48;101471.16;4952831;28;122991;-73
2022/10/05 08:59:58;;;;;;;5.78;3.60;;;;;;;19.86;55.42;101473.63;4933107;28;122820;-71
2022/10/05 09:02:39;;;;;;;6.15;3.60;;;;;;;19.90;55.32;101475.09;4963037;28;114520;-71
2022/10/05 09:05:43;;;;;;;4.00;3.20;;;;;;;19.96;55.39;101471.94;4952427;28;114391;-71
2022/10/05 09:08:35;;;;;;;5.80;3.60;;;;;;;20.00;55.25;101462.69;4970315;28;123862;-72
2022/10/05 09:11:30;;;;;;;5.93;3.33;;;;;;;20.07;55.12;101456.84;4969111;28;124531;-71
2022/10/05 09:14:11;;;;;;;6.50;3.67;;;;;;;20.12;55.34;101460.06;4940586;28;113831;-71
2022/10/05 09:17:15;;;;;;;8.77;3.60;;;;;;;20.18;55.17;101449.69;4951605;28;113776;-71
2022/10/05 09:20:05;;;;;;;5.30;3.33;;;;;;;20.27;55.24;101448.13;4952948;28;124424;-72
2022/10/05 09:22:51;;;;;;;6.43;3.85;;;;;;;20.34;55.11;101453.88;4950283;28;123346;-71
2022/10/05 09:25:53;;;;;;;4.68;3.13;;;;;;;20.41;55.16;101449.75;4970470;28;115457;-71
2022/10/05 09:28:53;;;;;;;5.28;3.30;;;;;;;20.48;54.89;101460.91;4970461;28;115925;-72
2022/10/05 09:31:57;;;;;;;5.70;3.17;;;;;;;20.53;54.93;101458.69;4956641;28;124659;-72
2022/10/05 09:34:36;;;;;;;5.32;3.40;;;;;;;20.61;54.83;101461.72;4961028;28;123863;-73
2022/10/05 09:37:27;;;;;;;5.95;3.60;;;;;;;20.67;54.73;101458.53;4967760;28;114523;-72
2022/10/05 09:40:24;;;;;;;5.10;3.33;;;;;;;20.73;54.40;101457.19;4943173;28;114492;-72
2022/10/05 09:43:22;;;;;;;4.88;3.20;;;;;;;20.77;54.27;101446.06;4955249;28;124887;-71
2022/10/05 09:46:01;;;;;;;4.53;3.22;;;;;;;20.84;54.16;101445.59;4967659;28;123912;-71
2022/10/05 09:48:53;;;;;;;5.68;3.28;;;;;;;20.91;54.29;101436.91;4969041;28;114052;-72
2022/10/05 09:51:29;;;;;;;5.90;3.40;;;;;;;21.01;54.20;101447.78;4940580;28;113308;-72
2022/10/05 09:54:14;;;;;;;5.30;3.00;;;;;;;21.07;53.98;101441.91;4969240;28;123898;-73
2022/10/05 09:57:06;;;;;;;3.92;2.92;;;;;;;21.11;53.74;101451.44;4968160;28;124694;-72
2022/10/05 10:00:07;;;;;;;4.82;3.33;;;;;;;21.15;53.64;101441.28;4956256;28;113750;-72
2022/10/05 10:02:58;;;;;;;4.88;3.30;;;;;;;21.19;53.57;101430.16;4956513;28;114443;-73
2022/10/05 10:05:38;;;;;;;6.00;3.35;;;;;;;21.26;53.56;101435.03;4952425;28;123995;-72
2022/10/05 10:08:29;;;;;;;4.07;3.00;;;;;;;21.31;53.26;101432.84;4946240;28;123849;-72
2022/10/05 10:11:22;;;;;;;4.95;2.97;;;;;;;21.32;53.09;101423.75;4955640;28;114283;-73
2022/10/05 10:14:10;;;;;;;5.38;2.80;;;;;;;21.36;53.05;101419.84;4969438;28;114627;-72
2022/10/05 10:16:57;;;;;;;5.95;2.92;;;;;;;21.41;53.16;101420.31;4947557;28;123227;-72
2022/10/05 10:19:43;;;;;;;4.38;2.97;;;;;;;21.46;52.99;101404.66;4968842;28;124137;-72
2022/10/05 10:22:41;;;;;;;4.68;3.05;;;;;;;21.51;52.95;101407.84;4967495;28;114720;-72
2022/10/05 10:25:51;;;;;;;4.68;3.03;;;;;;;21.56;52.99;101405.59;4960523;28;114591;-72
2022/10/05 10:28:45;;;;;;;4.88;2.70;;;;;;;21.61;52.79;101401.69;4966349;28;124050;-72
2022/10/05 10:31:47;;;;;;;4.78;3.03;;;;;;;21.65;52.62;101403.16;4969331;28;123874;-72
2022/10/05 10:34:22;;;;;;;5.57;2.80;;;;;;;21.71;52.69;101399.94;4950749;28;114089;-72
2022/10/05 10:37:17;;;;;;;6.28;2.60;;;;;;;21.79;52.82;101394.75;4951346;28;113832;-72
2022/10/05 10:40:12;;;;;;;4.82;2.53;;;;;;;21.89;52.56;101390.31;4965000;28;123792;-72
2022/10/05 10:43:04;;;;;;;3.13;2.35;;;;;;;21.97;52.40;101382.41;4949259;28;124105;-72
2022/10/05 10:45:58;;;;;;;5.38;2.30;;;;;;;22.05;52.14;101378.22;4942515;28;113723;-72
2022/10/05 10:48:28;;;;;;;4.38;2.60;;;;;;;22.12;51.78;101384.81;4958956;28;114395;-73
2022/10/05 10:51:14;;;;;;;6.63;2.97;;;;;;;22.14;51.73;101372.03;4937522;28;124168;-73
2022/10/05 10:54:11;;;;;;;4.43;2.35;;;;;;;22.19;51.58;101375.19;4966756;28;124232;-72
2022/10/05 10:56:41;;;;;;;4.80;2.35;;;;;;;22.24;51.47;101370.25;4947960;28;114777;-72
2022/10/05 10:59:25;;;;;;;4.10;2.38;;;;;;;22.27;51.25;101372.72;4962922;28;114763;-72
2022/10/05 11:02:37;;;;;;;5.40;2.30;;;;;;;22.31;51.16;101367.91;4966629;28;124005;-72
2022/10/05 11:05:24;;;;;;;3.25;2.40;;;;;;;22.37;51.47;101366.53;4964178;28;123705;-73
2022/10/05 11:08:05;;;;;;;2.95;2.40;;;;;;;22.42;51.10;101362.44;4949552;28;114459;-71
2022/10/05 11:10:50;;;;;;;4.40;2.10;;;;;;;22.46;51.15;101354.94;4958813;28;113834;-71
2022/10/05 11:13:38;;;;;;;3.73;2.33;;;;;;;22.51;50.91;101350.00;4962467;28;124872;-72
2022/10/05 11:16:12;;;;;;;6.70;2.20;;;;;;;22.56;50.60;101345.03;4945302;28;124143;-72
2022/10/05 11:19:06;;;;;;;4.85;2.28;;;;;;;22.62;50.65;101349.91;4950467;28;115138;-72
2022/10/05 11:22:01;;;;;;;3.50;1.90;;;;;;;22.67;50.55;101346.78;4967389;28;114525;-72
2022/10/05 11:24:28;;;;;;;2.05;1.67;;;;;;;22.71;50.56;101349.06;4966912;28;123715;-72
2022/10/05 11:27:19;;;;;;;3.30;1.95;;;;;;;22.75;50.46;101346.94;4950844;28;122012;-72
2022/10/05 11:30:18;;;;;;;3.25;2.05;;;;;;;22.80;50.33;101330.34;4969006;28;114495;-72
2022/10/05 11:33:10;;;;;;;4.43;2.03;;;;;;;22.89;50.44;101334.94;4936162;28;113742;-72
2022/10/05 11:35:48;;;;;;;5.95;2.17;;;;;;;22.97;50.37;101321.59;4948552;28;124733;-73
2022/10/05 11:38:24;;;;;;;3.35;2.10;;;;;;;23.07;50.26;101333.28;4969020;28;124751;-73
2022/10/05 11:41:27;;;;;;;5.20;2.13;;;;;;;23.18;50.25;101320.66;4973866;28;114445;-73
2022/10/05 11:44:33;;;;;;;5.30;2.10;;;;;;;23.27;49.88;101311.72;4942457;28;113425;-73
2022/10/05 11:47:22;;;;;;;3.70;2.00;;;;;;;23.35;49.81;101308.31;4948520;28;125080;-73
2022/10/05 11:50:20;;;;;;;3.67;2.05;;;;;;;23.41;49.30;101308.59;4975629;28;124550;-73
2022/10/05 11:52:54;;;;;;;5.03;2.67;;;;;;;23.46;49.22;101300.91;4947364;28;114167;-70
2022/10/05 11:56:03;;;;;;;3.60;1.83;;;;;;;23.52;49.64;101296.78;4958455;28;113215;-72
2022/10/05 11:58:35;;;;;;;4.88;2.20;;;;;;;23.59;48.91;101294.38;4965415;28;124058;-72
2022/10/05 12:01:36;;;;;;;4.38;2.20;;;;;;;23.57;48.73;101293.66;4970024;28;124832;-71
2022/10/05 12:04:19;;;;;;;3.38;2.00;;;;;;;23.58;49.02;101281.84;4934081;28;113300;-72
2022/10/05 12:07:01;;;;;;;6.32;2.03;;;;;;;23.63;48.85;101284.97;4968040;28;113919;-71
2022/10/05 12:10:12;;;;;;;2.92;2.10;;;;;;;23.65;48.59;101266.75;4953337;28;124286;-71
2022/10/05 12:12:35;;;;;;;2.70;2.10;;;;;;;23.69;48.98;101262.75;4955556;28;123576;-71
2022/10/05 12:15:17;;;;;;;2.97;1.70;;;;;;;23.74;48.74;101271.31;4965655;28;115272;-72
2022/10/05 12:17:58;;;;;;;3.78;1.90;;;;;;;23.82;48.78;101252.50;4968877;28;115379;-72
2022/10/05 12:20:39;;;;;;;5.20;2.05;;;;;;;23.91;48.74;101245.38;4966491;28;123902;-72
2022/10/05 12:23:19;;;;;;;4.65;1.90;;;;;;;23.98;48.71;101246.50;4961357;28;122827;-72
2022/10/05 12:25:55;;;;;;;2.90;1.80;;;;;;;24.07;48.51;101239.34;4972157;28;114242;-72
2022/10/05 12:28:32;;;;;;;5.20;1.83;;;;;;;24.13;48.11;101244.19;4955410;28;114035;-71
2022/10/05 12:31:03;;;;;;;2.67;1.70;;;;;;;24.20;48.18;101239.84;4972976;28;124646;-71
2022/10/05 12:33:47;;;;;;;2.38;1.50;;;;;;;24.22;48.02;101237.88;4957276;28;123675;-72
2022/10/05 12:36:45;;;;;;;5.13;1.77;;;;;;;24.23;48.10;101236.88;4966149;28;114229;-71
2022/10/05 12:39:46;;;;;;;4.22;2.22;;;;;;;24.27;47.75;101230.16;4947786;28;114519;-72
2022/10/05 12:42:44;;;;;;;3.65;1.88;;;;;;;24.32;48.12;101218.00;4952999;28;124549;-71